sensor_id;sensor_type;location;lat;lon;timestamp;pressure;altitude;pressure_sealevel;temperature;humidity
48668;BME280;34453;52.198;5.004;2023-07-13T00:01:58;101578.41;;;16.67;100.00
48668;BME280;34453;52.198;5.004;2023-07-13T00:04:25;101582.19;;;16.64;100.00
48668;BME280;34453;52.198;5.004;2023-07-13T00:06:51;101578.41;;;16.58;100.00
48668;BME280;34453;52.198;5.004;2023-07-13T00:09:18;101580.06;;;16.60;100.00
48668;BME280;34453;52.198;5.004;2023-07-13T00:11:45;101585.66;;;16.65;100.00
48668;BME280;34453;52.198;5.004;2023-07-13T00:14:33;101575.78;;;16.58;100.00
48668;BME280;34453;52.198;5.004;2023-07-13T00:17:04;101580.06;;;16.60;100.00
48668;BME280;34453;52.198;5.004;2023-07-13T00:19:30;101572.94;;;16.60;100.00
48668;BME280;34453;52.198;5.004;2023-07-13T00:21:56;101576.09;;;16.64;100.00
48668;BME280;34453;52.198;5.004;2023-07-13T00:24:22;101572.47;;;16.56;100.00
48668;BME280;34453;52.198;5.004;2023-07-13T00:26:49;101574.91;;;16.58;100.00
48668;BME280;34453;52.198;5.004;2023-07-13T00:29:16;101567.00;;;16.58;100.00
48668;BME280;34453;52.198;5.004;2023-07-13T00:31:52;101574.09;;;16.57;100.00
48668;BME280;34453;52.198;5.004;2023-07-13T00:34:17;101577.75;;;16.56;100.00
48668;BME280;34453;52.198;5.004;2023-07-13T00:36:44;101570.13;;;16.53;100.00
48668;BME280;34453;52.198;5.004;2023-07-13T00:39:12;101569.81;;;16.56;100.00
48668;BME280;34453;52.198;5.004;2023-07-13T00:41:39;101573.94;;;16.59;100.00
48668;BME280;34453;52.198;5.004;2023-07-13T00:44:04;101585.50;;;16.66;100.00
48668;BME280;34453;52.198;5.004;2023-07-13T00:46:33;101585.34;;;16.60;100.00
48668;BME280;34453;52.198;5.004;2023-07-13T00:49:03;101579.03;;;16.61;100.00
48668;BME280;34453;52.198;5.004;2023-07-13T00:51:50;101578.91;;;16.62;100.00
48668;BME280;34453;52.198;5.004;2023-07-13T00:54:24;101583.03;;;16.65;100.00
48668;BME280;34453;52.198;5.004;2023-07-13T00:56:53;101581.56;;;16.70;100.00
48668;BME280;34453;52.198;5.004;2023-07-13T00:59:21;101584.03;;;16.72;100.00
48668;BME280;34453;52.198;5.004;2023-07-13T01:01:48;101592.59;;;16.74;100.00
48668;BME280;34453;52.198;5.004;2023-07-13T01:04:14;101587.31;;;16.74;100.00
48668;BME280;34453;52.198;5.004;2023-07-13T01:06:40;101594.44;;;16.73;100.00
48668;BME280;34453;52.198;5.004;2023-07-13T01:09:09;101587.69;;;16.79;100.00
48668;BME280;34453;52.198;5.004;2023-07-13T01:11:35;101588.19;;;16.83;100.00
48668;BME280;34453;52.198;5.004;2023-07-13T01:14:08;101581.41;;;16.80;100.00
48668;BME280;34453;52.198;5.004;2023-07-13T01:16:36;101587.00;;;16.77;100.00
48668;BME280;34453;52.198;5.004;2023-07-13T01:19:10;101591.03;;;16.81;100.00
48668;BME280;34453;52.198;5.004;2023-07-13T01:21:38;101598.28;;;16.87;100.00
48668;BME280;34453;52.198;5.004;2023-07-13T01:24:08;101593.31;;;16.84;100.00
48668;BME280;34453;52.198;5.004;2023-07-13T01:26:34;101605.72;;;16.84;100.00
48668;BME280;34453;52.198;5.004;2023-07-13T01:29:00;101603.22;;;16.82;100.00
48668;BME280;34453;52.198;5.004;2023-07-13T01:31:25;101614.25;;;16.77;100.00
48668;BME280;34453;52.198;5.004;2023-07-13T01:33:51;101594.94;;;16.77;100.00
48668;BME280;34453;52.198;5.004;2023-07-13T01:36:17;101601.69;;;16.71;100.00
48668;BME280;34453;52.198;5.004;2023-07-13T01:38:43;101605.19;;;16.72;100.00
48668;BME280;34453;52.198;5.004;2023-07-13T01:41:08;101607.13;;;16.62;100.00
48668;BME280;34453;52.198;5.004;2023-07-13T01:43:34;101605.47;;;16.61;100.00
48668;BME280;34453;52.198;5.004;2023-07-13T01:46:03;101607.28;;;16.60;100.00
48668;BME280;34453;52.198;5.004;2023-07-13T01:48:29;101609.44;;;16.56;100.00
48668;BME280;34453;52.198;5.004;2023-07-13T01:50:54;101609.09;;;16.51;100.00
48668;BME280;34453;52.198;5.004;2023-07-13T01:53:20;101610.09;;;16.50;100.00
48668;BME280;34453;52.198;5.004;2023-07-13T01:55:46;101609.41;;;16.48;100.00
48668;BME280;34453;52.198;5.004;2023-07-13T01:58:11;101616.34;;;16.49;100.00
48668;BME280;34453;52.198;5.004;2023-07-13T02:00:38;101607.41;;;16.42;100.00
48668;BME280;34453;52.198;5.004;2023-07-13T02:03:04;101609.56;;;16.39;100.00
48668;BME280;34453;52.198;5.004;2023-07-13T02:05:29;101621.63;;;16.41;100.00
48668;BME280;34453;52.198;5.004;2023-07-13T02:07:55;101609.38;;;16.32;100.00
48668;BME280;34453;52.198;5.004;2023-07-13T02:10:27;101606.88;;;16.30;100.00
48668;BME280;34453;52.198;5.004;2023-07-13T02:12:53;101613.00;;;16.31;100.00
48668;BME280;34453;52.198;5.004;2023-07-13T02:15:19;101618.28;;;16.31;100.00
48668;BME280;34453;52.198;5.004;2023-07-13T02:17:45;101620.88;;;16.23;100.00
48668;BME280;34453;52.198;5.004;2023-07-13T02:20:11;101621.19;;;16.20;100.00
48668;BME280;34453;52.198;5.004;2023-07-13T02:22:38;101624.84;;;16.19;100.00
48668;BME280;34453;52.198;5.004;2023-07-13T02:25:04;101614.91;;;16.12;100.00
48668;BME280;34453;52.198;5.004;2023-07-13T02:27:30;101625.13;;;16.15;100.00
48668;BME280;34453;52.198;5.004;2023-07-13T02:29:55;101631.72;;;16.11;100.00
48668;BME280;34453;52.198;5.004;2023-07-13T02:32:24;101632.38;;;16.13;100.00
48668;BME280;34453;52.198;5.004;2023-07-13T02:34:52;101626.09;;;16.06;100.00
48668;BME280;34453;52.198;5.004;2023-07-13T02:37:18;101632.19;;;16.07;100.00
48668;BME280;34453;52.198;5.004;2023-07-13T02:39:43;101626.41;;;16.03;100.00
48668;BME280;34453;52.198;5.004;2023-07-13T02:42:09;101634.13;;;15.97;100.00
48668;BME280;34453;52.198;5.004;2023-07-13T02:44:38;101635.94;;;15.96;100.00
48668;BME280;34453;52.198;5.004;2023-07-13T02:47:03;101636.72;;;15.88;100.00
48668;BME280;34453;52.198;5.004;2023-07-13T02:49:29;101644.31;;;15.91;100.00
48668;BME280;34453;52.198;5.004;2023-07-13T02:51:54;101641.84;;;15.90;100.00
48668;BME280;34453;52.198;5.004;2023-07-13T02:54:20;101641.84;;;15.90;100.00
48668;BME280;34453;52.198;5.004;2023-07-13T02:56:45;101643.63;;;15.89;100.00
48668;BME280;34453;52.198;5.004;2023-07-13T02:59:11;101644.63;;;15.88;100.00
48668;BME280;34453;52.198;5.004;2023-07-13T03:01:37;101636.38;;;15.83;100.00
48668;BME280;34453;52.198;5.004;2023-07-13T03:04:08;101627.94;;;15.80;100.00
48668;BME280;34453;52.198;5.004;2023-07-13T03:06:36;101626.28;;;15.79;100.00
48668;BME280;34453;52.198;5.004;2023-07-13T03:09:03;101623.28;;;15.73;100.00
48668;BME280;34453;52.198;5.004;2023-07-13T03:11:29;101635.19;;;15.78;100.00
48668;BME280;34453;52.198;5.004;2023-07-13T03:13:55;101626.59;;;15.75;100.00
48668;BME280;34453;52.198;5.004;2023-07-13T03:16:21;101623.13;;;15.75;100.00
48668;BME280;34453;52.198;5.004;2023-07-13T03:18:47;101617.53;;;15.78;100.00
48668;BME280;34453;52.198;5.004;2023-07-13T03:21:14;101620.00;;;15.80;100.00
48668;BME280;34453;52.198;5.004;2023-07-13T03:23:39;101613.09;;;15.79;100.00
48668;BME280;34453;52.198;5.004;2023-07-13T03:26:12;101609.47;;;15.80;100.00
48668;BME280;34453;52.198;5.004;2023-07-13T03:28:39;101596.28;;;15.80;100.00
48668;BME280;34453;52.198;5.004;2023-07-13T03:31:20;101608.47;;;15.81;100.00
48668;BME280;34453;52.198;5.004;2023-07-13T03:33:48;101607.63;;;15.72;100.00
48668;BME280;34453;52.198;5.004;2023-07-13T03:36:18;101600.97;;;15.68;100.00
48668;BME280;34453;52.198;5.004;2023-07-13T03:38:49;101603.75;;;15.66;100.00
48668;BME280;34453;52.198;5.004;2023-07-13T03:41:15;101621.88;;;15.69;100.00
48668;BME280;34453;52.198;5.004;2023-07-13T03:43:42;101614.69;;;15.71;100.00
48668;BME280;34453;52.198;5.004;2023-07-13T03:46:07;101615.97;;;15.67;100.00
48668;BME280;34453;52.198;5.004;2023-07-13T03:48:33;101612.34;;;15.68;100.00
48668;BME280;34453;52.198;5.004;2023-07-13T03:50:59;101620.94;;;15.70;100.00
48668;BME280;34453;52.198;5.004;2023-07-13T03:53:24;101616.50;;;15.71;100.00
48668;BME280;34453;52.198;5.004;2023-07-13T03:55:50;101622.75;;;15.70;100.00
48668;BME280;34453;52.198;5.004;2023-07-13T04:01:00;101620.63;;;15.73;100.00
48668;BME280;34453;52.198;5.004;2023-07-13T04:03:26;101631.47;;;15.70;100.00
48668;BME280;34453;52.198;5.004;2023-07-13T04:05:54;101646.03;;;15.74;100.00
48668;BME280;34453;52.198;5.004;2023-07-13T04:08:20;101650.31;;;15.75;100.00
48668;BME280;34453;52.198;5.004;2023-07-13T04:10:45;101646.56;;;15.60;100.00
48668;BME280;34453;52.198;5.004;2023-07-13T04:13:11;101654.53;;;15.68;100.00
48668;BME280;34453;52.198;5.004;2023-07-13T04:15:38;101661.47;;;15.69;100.00
48668;BME280;34453;52.198;5.004;2023-07-13T04:18:04;101672.47;;;15.65;100.00
48668;BME280;34453;52.198;5.004;2023-07-13T04:20:30;101665.88;;;15.61;100.00
48668;BME280;34453;52.198;5.004;2023-07-13T04:22:55;101674.81;;;15.68;100.00
48668;BME280;34453;52.198;5.004;2023-07-13T04:25:21;101677.59;;;15.66;100.00
48668;BME280;34453;52.198;5.004;2023-07-13T04:27:47;101672.47;;;15.65;100.00
48668;BME280;34453;52.198;5.004;2023-07-13T04:30:12;101682.56;;;15.69;100.00
48668;BME280;34453;52.198;5.004;2023-07-13T04:32:38;101692.28;;;15.69;100.00
48668;BME280;34453;52.198;5.004;2023-07-13T04:35:04;101703.31;;;15.82;100.00
48668;BME280;34453;52.198;5.004;2023-07-13T04:37:30;101706.63;;;15.84;100.00
48668;BME280;34453;52.198;5.004;2023-07-13T04:39:56;101705.13;;;15.82;100.00
48668;BME280;34453;52.198;5.004;2023-07-13T04:42:22;101712.72;;;15.85;100.00
48668;BME280;34453;52.198;5.004;2023-07-13T04:44:51;101724.94;;;15.86;100.00
48668;BME280;34453;52.198;5.004;2023-07-13T04:47:18;101720.59;;;15.77;100.00
48668;BME280;34453;52.198;5.004;2023-07-13T04:49:44;101718.78;;;15.77;100.00
48668;BME280;34453;52.198;5.004;2023-07-13T04:52:10;101711.69;;;15.78;100.00
48668;BME280;34453;52.198;5.004;2023-07-13T04:54:36;101717.94;;;15.77;100.00
48668;BME280;34453;52.198;5.004;2023-07-13T04:57:03;101725.63;;;15.88;100.00
48668;BME280;34453;52.198;5.004;2023-07-13T04:59:32;101729.44;;;15.93;100.00
48668;BME280;34453;52.198;5.004;2023-07-13T05:01:57;101732.75;;;15.95;100.00
48668;BME280;34453;52.198;5.004;2023-07-13T05:04:23;101738.50;;;15.91;100.00
48668;BME280;34453;52.198;5.004;2023-07-13T05:06:48;101736.84;;;15.90;100.00
48668;BME280;34453;52.198;5.004;2023-07-13T05:09:14;101735.53;;;15.94;100.00
48668;BME280;34453;52.198;5.004;2023-07-13T05:11:39;101743.44;;;15.94;100.00
48668;BME280;34453;52.198;5.004;2023-07-13T05:14:05;101747.97;;;16.02;100.00
48668;BME280;34453;52.198;5.004;2023-07-13T05:16:30;101764.69;;;16.10;100.00
48668;BME280;34453;52.198;5.004;2023-07-13T05:18:57;101756.09;;;16.08;100.00
48668;BME280;34453;52.198;5.004;2023-07-13T05:21:23;101763.75;;;16.20;100.00
48668;BME280;34453;52.198;5.004;2023-07-13T05:23:53;101756.44;;;16.13;100.00
48668;BME280;34453;52.198;5.004;2023-07-13T05:26:21;101760.31;;;16.27;100.00
48668;BME280;34453;52.198;5.004;2023-07-13T05:28:57;101765.50;;;16.37;100.00
48668;BME280;34453;52.198;5.004;2023-07-13T05:31:23;101770.53;;;16.48;100.00
48668;BME280;34453;52.198;5.004;2023-07-13T05:33:48;101771.19;;;16.50;100.00
48668;BME280;34453;52.198;5.004;2023-07-13T05:36:14;101761.31;;;16.52;100.00
48668;BME280;34453;52.198;5.004;2023-07-13T05:38:39;101767.28;;;16.63;100.00
48668;BME280;34453;52.198;5.004;2023-07-13T05:41:05;101755.06;;;16.62;100.00
48668;BME280;34453;52.198;5.004;2023-07-13T05:43:31;101764.34;;;16.74;100.00
48668;BME280;34453;52.198;5.004;2023-07-13T05:45:58;101760.16;;;16.81;100.00
48668;BME280;34453;52.198;5.004;2023-07-13T05:48:24;101756.06;;;16.95;100.00
48668;BME280;34453;52.198;5.004;2023-07-13T05:50:50;101755.22;;;17.03;100.00
48668;BME280;34453;52.198;5.004;2023-07-13T05:53:15;101751.31;;;17.15;100.00
48668;BME280;34453;52.198;5.004;2023-07-13T05:55:45;101761.91;;;17.23;100.00
48668;BME280;34453;52.198;5.004;2023-07-13T05:58:18;101763.22;;;17.19;100.00
48668;BME280;34453;52.198;5.004;2023-07-13T06:00:45;101755.94;;;17.13;100.00
48668;BME280;34453;52.198;5.004;2023-07-13T06:03:11;101757.56;;;17.14;100.00
48668;BME280;34453;52.198;5.004;2023-07-13T06:05:37;101764.00;;;17.11;100.00
48668;BME280;34453;52.198;5.004;2023-07-13T06:08:04;101758.91;;;17.10;100.00
48668;BME280;34453;52.198;5.004;2023-07-13T06:10:32;101760.56;;;17.19;100.00
48668;BME280;34453;52.198;5.004;2023-07-13T06:12:58;101761.91;;;17.23;100.00
48668;BME280;34453;52.198;5.004;2023-07-13T06:15:24;101764.56;;;17.31;100.00
48668;BME280;34453;52.198;5.004;2023-07-13T06:17:49;101764.56;;;17.39;100.00
48668;BME280;34453;52.198;5.004;2023-07-13T06:20:15;101758.63;;;17.54;100.00
48668;BME280;34453;52.198;5.004;2023-07-13T06:22:40;101756.16;;;17.60;100.00
48668;BME280;34453;52.198;5.004;2023-07-13T06:25:06;101752.84;;;17.67;100.00
48668;BME280;34453;52.198;5.004;2023-07-13T06:27:32;101739.47;;;17.76;100.00
48668;BME280;34453;52.198;5.004;2023-07-13T06:29:58;101739.47;;;18.01;100.00
48668;BME280;34453;52.198;5.004;2023-07-13T06:32:23;101736.47;;;18.12;100.00
48668;BME280;34453;52.198;5.004;2023-07-13T06:34:49;101729.47;;;18.28;100.00
48668;BME280;34453;52.198;5.004;2023-07-13T06:37:17;101719.97;;;18.41;100.00
48668;BME280;34453;52.198;5.004;2023-07-13T06:39:43;101730.91;;;18.38;100.00
48668;BME280;34453;52.198;5.004;2023-07-13T06:42:08;101761.94;;;18.21;100.00
48668;BME280;34453;52.198;5.004;2023-07-13T06:44:34;101757.16;;;18.09;100.00
48668;BME280;34453;52.198;5.004;2023-07-13T06:46:59;101749.19;;;17.76;100.00
48668;BME280;34453;52.198;5.004;2023-07-13T06:49:25;101757.66;;;17.63;100.00
48668;BME280;34453;52.198;5.004;2023-07-13T06:51:51;101769.88;;;17.48;100.00
48668;BME280;34453;52.198;5.004;2023-07-13T06:54:17;101787.22;;;17.42;100.00
48668;BME280;34453;52.198;5.004;2023-07-13T06:56:42;101809.03;;;17.36;100.00
48668;BME280;34453;52.198;5.004;2023-07-13T06:59:08;101802.56;;;17.22;100.00
48668;BME280;34453;52.198;5.004;2023-07-13T07:01:33;101809.34;;;17.16;100.00
48668;BME280;34453;52.198;5.004;2023-07-13T07:03:59;101816.91;;;17.11;100.00
48668;BME280;34453;52.198;5.004;2023-07-13T07:06:24;101801.53;;;16.72;100.00
48668;BME280;34453;52.198;5.004;2023-07-13T07:08:51;101789.69;;;16.50;100.00
48668;BME280;34453;52.198;5.004;2023-07-13T07:11:20;101789.63;;;16.42;100.00
48668;BME280;34453;52.198;5.004;2023-07-13T07:13:47;101780.91;;;16.42;100.00
48668;BME280;34453;52.198;5.004;2023-07-13T07:16:13;101782.19;;;16.37;100.00
48668;BME280;34453;52.198;5.004;2023-07-13T07:18:39;101773.72;;;16.34;100.00
48668;BME280;34453;52.198;5.004;2023-07-13T07:21:04;101783.00;;;16.38;100.00
48668;BME280;34453;52.198;5.004;2023-07-13T07:23:30;101776.09;;;16.37;100.00
48668;BME280;34453;52.198;5.004;2023-07-13T07:25:55;101765.50;;;16.37;100.00
48668;BME280;34453;52.198;5.004;2023-07-13T07:28:21;101778.50;;;16.56;100.00
48668;BME280;34453;52.198;5.004;2023-07-13T07:30:47;101780.38;;;16.72;100.00
48668;BME280;34453;52.198;5.004;2023-07-13T07:33:14;101770.41;;;16.92;100.00
48668;BME280;34453;52.198;5.004;2023-07-13T07:35:40;101781.06;;;17.17;100.00
48668;BME280;34453;52.198;5.004;2023-07-13T07:38:06;101780.75;;;17.28;100.00
48668;BME280;34453;52.198;5.004;2023-07-13T07:40:36;101768.84;;;17.40;100.00
48668;BME280;34453;52.198;5.004;2023-07-13T07:43:02;101771.69;;;17.55;100.00
48668;BME280;34453;52.198;5.004;2023-07-13T07:45:28;101755.00;;;17.63;100.00
48668;BME280;34453;52.198;5.004;2023-07-13T07:47:53;101769.75;;;17.82;100.00
48668;BME280;34453;52.198;5.004;2023-07-13T07:50:20;101753.38;;;17.87;100.00
48668;BME280;34453;52.198;5.004;2023-07-13T07:52:45;101760.28;;;18.12;100.00
48668;BME280;34453;52.198;5.004;2023-07-13T07:55:11;101777.47;;;18.25;100.00
48668;BME280;34453;52.198;5.004;2023-07-13T07:57:36;101759.59;;;18.18;100.00
48668;BME280;34453;52.198;5.004;2023-07-13T08:00:02;101752.00;;;18.15;100.00
48668;BME280;34453;52.198;5.004;2023-07-13T08:02:28;101751.34;;;18.21;100.00
48668;BME280;34453;52.198;5.004;2023-07-13T08:04:53;101752.59;;;18.42;100.00
48668;BME280;34453;52.198;5.004;2023-07-13T08:07:19;101758.03;;;18.49;100.00
48668;BME280;34453;52.198;5.004;2023-07-13T08:09:44;101747.66;;;18.39;100.00
48668;BME280;34453;52.198;5.004;2023-07-13T08:12:10;101752.66;;;18.26;100.00
48668;BME280;34453;52.198;5.004;2023-07-13T08:14:35;101758.47;;;18.13;100.00
48668;BME280;34453;52.198;5.004;2023-07-13T08:17:01;101760.81;;;18.08;100.00
48668;BME280;34453;52.198;5.004;2023-07-13T08:19:27;101766.09;;;17.99;100.00
48668;BME280;34453;52.198;5.004;2023-07-13T08:21:52;101772.22;;;17.92;100.00
48668;BME280;34453;52.198;5.004;2023-07-13T08:24:18;101775.00;;;17.74;100.00
48668;BME280;34453;52.198;5.004;2023-07-13T08:26:44;101782.47;;;17.87;100.00
48668;BME280;34453;52.198;5.004;2023-07-13T08:29:11;101783.94;;;18.14;100.00
48668;BME280;34453;52.198;5.004;2023-07-13T08:31:37;101788.72;;;18.18;100.00
48668;BME280;34453;52.198;5.004;2023-07-13T08:34:04;101799.31;;;18.35;100.00
48668;BME280;34453;52.198;5.004;2023-07-13T08:36:29;101794.63;;;18.53;100.00
48668;BME280;34453;52.198;5.004;2023-07-13T08:38:55;101782.19;;;18.54;100.00
48668;BME280;34453;52.198;5.004;2023-07-13T08:41:21;101783.31;;;18.68;100.00
48668;BME280;34453;52.198;5.004;2023-07-13T08:43:58;101780.63;;;18.76;100.00
48668;BME280;34453;52.198;5.004;2023-07-13T08:46:44;101773.03;;;18.64;100.00
48668;BME280;34453;52.198;5.004;2023-07-13T08:49:14;101762.91;;;18.29;100.00
48668;BME280;34453;52.198;5.004;2023-07-13T08:51:47;101772.88;;;17.94;100.00
48668;BME280;34453;52.198;5.004;2023-07-13T08:54:28;101777.50;;;17.75;100.00
48668;BME280;34453;52.198;5.004;2023-07-13T08:56:56;101790.72;;;17.75;100.00
48668;BME280;34453;52.198;5.004;2023-07-13T08:59:27;101786.09;;;17.61;100.00
48668;BME280;34453;52.198;5.004;2023-07-13T09:04:29;101787.22;;;17.58;100.00
48668;BME280;34453;52.198;5.004;2023-07-13T09:12:35;101792.38;;;18.17;100.00
48668;BME280;34453;52.198;5.004;2023-07-13T09:15:21;101769.44;;;18.49;100.00
48668;BME280;34453;52.198;5.004;2023-07-13T09:17:49;101757.25;;;18.88;100.00
48668;BME280;34453;52.198;5.004;2023-07-13T09:20:23;101749.22;;;19.27;100.00
48668;BME280;34453;52.198;5.004;2023-07-13T09:22:52;101744.97;;;19.41;100.00
48668;BME280;34453;52.198;5.004;2023-07-13T09:27:53;101736.59;;;19.52;100.00
48668;BME280;34453;52.198;5.004;2023-07-13T09:30:32;101732.47;;;19.87;100.00
48668;BME280;34453;52.198;5.004;2023-07-13T09:32:59;101730.16;;;19.70;100.00
48668;BME280;34453;52.198;5.004;2023-07-13T09:35:27;101746.94;;;19.70;100.00
48668;BME280;34453;52.198;5.004;2023-07-13T09:38:19;101745.75;;;19.73;100.00
48668;BME280;34453;52.198;5.004;2023-07-13T09:40:58;101730.75;;;19.80;100.00
48668;BME280;34453;52.198;5.004;2023-07-13T09:43:25;101755.03;;;19.68;100.00
48668;BME280;34453;52.198;5.004;2023-07-13T09:45:51;101762.59;;;19.57;100.00
48668;BME280;34453;52.198;5.004;2023-07-13T09:48:17;101750.97;;;19.81;100.00
48668;BME280;34453;52.198;5.004;2023-07-13T09:50:44;101757.69;;;20.06;100.00
48668;BME280;34453;52.198;5.004;2023-07-13T09:53:15;101743.84;;;19.81;100.00
48668;BME280;34453;52.198;5.004;2023-07-13T09:55:44;101765.25;;;19.57;100.00
48668;BME280;34453;52.198;5.004;2023-07-13T10:00:37;101759.72;;;19.43;100.00
48668;BME280;34453;52.198;5.004;2023-07-13T10:03:19;101753.72;;;19.73;100.00
48668;BME280;34453;52.198;5.004;2023-07-13T10:05:47;101762.50;;;19.73;100.00
48668;BME280;34453;52.198;5.004;2023-07-13T10:08:25;101763.47;;;20.25;100.00
48668;BME280;34453;52.198;5.004;2023-07-13T10:11:11;101749.28;;;20.18;100.00
48668;BME280;34453;52.198;5.004;2023-07-13T10:13:42;101757.69;;;20.06;100.00
48668;BME280;34453;52.198;5.004;2023-07-13T10:16:09;101760.97;;;19.94;100.00
48668;BME280;34453;52.198;5.004;2023-07-13T10:19:00;101757.75;;;19.83;100.00
48668;BME280;34453;52.198;5.004;2023-07-13T10:21:30;101758.38;;;19.71;100.00
48668;BME280;34453;52.198;5.004;2023-07-13T10:24:14;101778.25;;;19.90;100.00
48668;BME280;34453;52.198;5.004;2023-07-13T10:26:47;101778.41;;;19.73;100.00
48668;BME280;34453;52.198;5.004;2023-07-13T10:29:15;101777.88;;;19.55;100.00
48668;BME280;34453;52.198;5.004;2023-07-13T10:31:41;101797.84;;;19.42;100.00
48668;BME280;34453;52.198;5.004;2023-07-13T10:34:11;101798.50;;;19.21;100.00
48668;BME280;34453;52.198;5.004;2023-07-13T10:36:48;101799.03;;;19.17;100.00
48668;BME280;34453;52.198;5.004;2023-07-13T10:39:20;101805.66;;;19.13;100.00
48668;BME280;34453;52.198;5.004;2023-07-13T10:41:52;101802.84;;;19.14;100.00
48668;BME280;34453;52.198;5.004;2023-07-13T10:44:24;101813.78;;;19.42;100.00
48668;BME280;34453;52.198;5.004;2023-07-13T10:47:12;101783.94;;;19.86;100.00
48668;BME280;34453;52.198;5.004;2023-07-13T10:49:41;101767.34;;;20.37;100.00
48668;BME280;34453;52.198;5.004;2023-07-13T10:52:47;101772.03;;;20.65;100.00
48668;BME280;34453;52.198;5.004;2023-07-13T10:58:18;101786.00;;;21.03;100.00
48668;BME280;34453;52.198;5.004;2023-07-13T11:03:28;101816.56;;;20.63;100.00
48668;BME280;34453;52.198;5.004;2023-07-13T11:18:50;101815.88;;;20.16;100.00
48668;BME280;34453;52.198;5.004;2023-07-13T11:21:19;101824.59;;;20.25;100.00
48668;BME280;34453;52.198;5.004;2023-07-13T11:23:52;101811.34;;;20.55;100.00
48668;BME280;34453;52.198;5.004;2023-07-13T11:29:24;101807.81;;;21.50;100.00
48668;BME280;34453;52.198;5.004;2023-07-13T11:31:56;101813.41;;;21.40;100.00
48668;BME280;34453;52.198;5.004;2023-07-13T11:34:35;101797.00;;;21.37;100.00
48668;BME280;34453;52.198;5.004;2023-07-13T11:37:02;101817.84;;;21.33;100.00
48668;BME280;34453;52.198;5.004;2023-07-13T11:39:36;101810.19;;;21.45;100.00
48668;BME280;34453;52.198;5.004;2023-07-13T11:42:06;101803.31;;;21.50;100.00
48668;BME280;34453;52.198;5.004;2023-07-13T11:44:34;101812.56;;;21.55;100.00
48668;BME280;34453;52.198;5.004;2023-07-13T11:47:09;101812.13;;;21.36;100.00
48668;BME280;34453;52.198;5.004;2023-07-13T11:49:42;101805.91;;;21.44;100.00
48668;BME280;34453;52.198;5.004;2023-07-13T11:52:13;101818.38;;;21.65;100.00
48668;BME280;34453;52.198;5.004;2023-07-13T11:54:49;101809.00;;;21.90;100.00
48668;BME280;34453;52.198;5.004;2023-07-13T11:57:33;101797.53;;;21.32;100.00
48668;BME280;34453;52.198;5.004;2023-07-13T12:00:03;101814.94;;;21.28;100.00
48668;BME280;34453;52.198;5.004;2023-07-13T12:02:38;101809.44;;;21.51;100.00
48668;BME280;34453;52.198;5.004;2023-07-13T12:05:05;101821.31;;;21.70;100.00
48668;BME280;34453;52.198;5.004;2023-07-13T12:07:33;101803.41;;;21.85;100.00
48668;BME280;34453;52.198;5.004;2023-07-13T12:10:03;101813.06;;;21.43;100.00
48668;BME280;34453;52.198;5.004;2023-07-13T12:12:36;101807.59;;;21.94;100.00
48668;BME280;34453;52.198;5.004;2023-07-13T12:15:06;101801.41;;;21.94;100.00
48668;BME280;34453;52.198;5.004;2023-07-13T12:17:34;101809.91;;;21.55;100.00
48668;BME280;34453;52.198;5.004;2023-07-13T12:20:03;101816.41;;;21.52;100.00
48668;BME280;34453;52.198;5.004;2023-07-13T12:22:36;101813.38;;;22.26;100.00
48668;BME280;34453;52.198;5.004;2023-07-13T12:25:01;101808.28;;;22.66;100.00
48668;BME280;34453;52.198;5.004;2023-07-13T12:27:27;101802.78;;;22.40;100.00
48668;BME280;34453;52.198;5.004;2023-07-13T12:30:03;101805.84;;;22.37;100.00
48668;BME280;34453;52.198;5.004;2023-07-13T12:32:31;101807.31;;;21.89;100.00
48668;BME280;34453;52.198;5.004;2023-07-13T12:35:17;101819.88;;;21.96;100.00
48668;BME280;34453;52.198;5.004;2023-07-13T12:37:46;101808.50;;;22.37;100.00
48668;BME280;34453;52.198;5.004;2023-07-13T12:40:17;101816.91;;;22.33;100.00
48668;BME280;34453;52.198;5.004;2023-07-13T12:42:49;101821.91;;;21.93;100.00
48668;BME280;34453;52.198;5.004;2023-07-13T12:45:22;101823.56;;;21.30;100.00
48668;BME280;34453;52.198;5.004;2023-07-13T12:47:53;101837.88;;;22.15;100.00
48668;BME280;34453;52.198;5.004;2023-07-13T12:50:21;101820.41;;;22.75;100.00
48668;BME280;34453;52.198;5.004;2023-07-13T12:52:53;101815.91;;;22.34;100.00
48668;BME280;34453;52.198;5.004;2023-07-13T12:55:21;101814.63;;;22.30;100.00
48668;BME280;34453;52.198;5.004;2023-07-13T12:57:52;101815.50;;;22.38;100.00
48668;BME280;34453;52.198;5.004;2023-07-13T13:00:29;101821.31;;;22.48;100.00
48668;BME280;34453;52.198;5.004;2023-07-13T13:03:02;101816.09;;;22.11;100.00
48668;BME280;34453;52.198;5.004;2023-07-13T13:05:29;101832.75;;;22.42;100.00
48668;BME280;34453;52.198;5.004;2023-07-13T13:07:55;101819.50;;;22.55;100.00
48668;BME280;34453;52.198;5.004;2023-07-13T13:10:21;101825.53;;;22.35;100.00
48668;BME280;34453;52.198;5.004;2023-07-13T13:12:47;101824.47;;;22.30;100.00
48668;BME280;34453;52.198;5.004;2023-07-13T13:15:13;101817.91;;;22.67;100.00
48668;BME280;34453;52.198;5.004;2023-07-13T13:17:39;101831.31;;;22.81;100.00
48668;BME280;34453;52.198;5.004;2023-07-13T13:20:16;101817.19;;;22.52;100.00
48668;BME280;34453;52.198;5.004;2023-07-13T13:22:43;101819.16;;;22.37;100.00
48668;BME280;34453;52.198;5.004;2023-07-13T13:25:10;101828.50;;;22.54;100.00